Camellia — VRCP9 — position and weather

sailwx.info

Track history (hours):
 
Tides and Currents Weather Stations Pressure Air Temp Water Temp Dewpoint Dewpoint Depression Visibility Wind Speed Wind Dir Waves Ship Positions

Camellia

Last reported at 2015-Jul-06 20:08 UTC. Time now 2015-Jul-07 06:44 UTC.
Position N 41°54' W 009°49'.

Length 222 m; draft 8.2 m.

Type: Ship (hazmat cat C). MMSI: 477791900.

Date/timePositionNaut miles runAvg speedWind from/ knotsBaromVisibWave heightAir tempDewpointWater temp
2015-Jul-06 20:08N 41°54' W 009°49'1119.8
2015-Jul-06 19:33N 41°43' W 009°49'2019.9
2015-Jul-06 18:33N 41°23' W 009°47'2120.6
2015-Jul-06 17:33N 41°02' W 009°45'2020.6
2015-Jul-06 16:33N 40°42' W 009°42'1919.4
2015-Jul-06 15:34N 40°24' W 009°50'2120.3
2015-Jul-06 14:33N 40°03' W 009°53'1919.7
2015-Jul-06 13:33N 39°44' W 009°52'2020.2
2015-Jul-06 12:33N 39°24' W 009°50'2020.3
2015-Jul-06 11:33N 39°03' W 009°50'2020.2
2015-Jul-06 10:33N 38°43' W 009°51'2020.3
2015-Jul-06 09:33N 38°23' W 009°45'2020.4
2015-Jul-06 08:34N 38°03' W 009°41'2120.4
2015-Jul-06 07:33N 37°43' W 009°34'2120.7
2015-Jul-06 06:34N 37°23' W 009°27'2120.8
2015-Jul-06 05:33N 37°03' W 009°21'2019.8
2015-Jul-06 04:34N 36°46' W 009°10'1919.0
2015-Jul-06 03:34N 36°31' W 008°54'2121.0
2015-Jul-06 02:33N 36°12' W 008°45'2121.0
2015-Jul-06 01:34N 35°52' W 008°35'122 4.8
2015-Jul-05 00:10N 34°07' W 007°20'1314.2
2015-Jul-04 23:17N 34°18' W 007°14'1614.4
2015-Jul-04 22:11N 34°32' W 007°05'914.4
2015-Jul-04 21:33N 34°41' W 007°01'9815.8
2015-Jul-04 15:21N 35°57' W 005°46'22 0.8
2015-Jul-03 12:34N 36°02' W 005°20'12019.3
2015-Jul-03 06:21N 36°08' W 002°52'1820.0
2015-Jul-03 05:27N 36°09' W 002°29'4019.5
2015-Jul-03 03:23N 36°14' W 001°40'3819.5
2015-Jul-03 01:26N 36°23' W 000°54'1919.4
2015-Jul-03 00:26N 36°28' W 000°31'1818.9
2015-Jul-02 23:30N 36°32' W 000°09'1819.2
2015-Jul-02 22:33N 36°36' E 000°13'2019.1
2015-Jul-02 21:31N 36°41' E 000°37'1919.3
2015-Jul-02 20:33N 36°45' E 000°60'1919.4
2015-Jul-02 19:34N 36°49' E 001°23'2019.6
2015-Jul-02 18:33N 36°54' E 001°47'1919.1
2015-Jul-02 17:33N 36°59' E 002°10'1919.6
2015-Jul-02 16:33N 37°04' E 002°34'1919.5
2015-Jul-02 15:34N 37°08' E 002°58'1919.3
2015-Jul-02 14:33N 37°12' E 003°21'1919.4
2015-Jul-02 13:33N 37°17' E 003°45'1918.7
2015-Jul-02 12:34N 37°20' E 004°08'2019.3
2015-Jul-02 11:31N 37°20' E 004°33'1919.4
2015-Jul-02 10:33N 37°19' E 004°57'1919.5
2015-Jul-02 09:33N 37°19' E 005°21'2020.1
2015-Jul-02 08:33N 37°18' E 005°47'2121.1
2015-Jul-02 07:32N 37°18' E 006°13'2121.3
2015-Jul-02 06:33N 37°18' E 006°40'4120.4
2015-Jul-02 04:33N 37°17' E 007°31'2020.4
2015-Jul-02 03:34N 37°16' E 007°57'2120.2
2015-Jul-02 02:30N 37°16' E 008°23'1919.7
2015-Jul-02 01:32N 37°20' E 008°47'1919.7
2015-Jul-02 00:33N 37°26' E 009°10'2019.6
2015-Jul-01 23:33N 37°32' E 009°34'1919.6
2015-Jul-01 22:34N 37°38' E 009°57'1919.3
2015-Jul-01 21:33N 37°37' E 010°21'1919.3
2015-Jul-01 20:33N 37°33' E 010°45'2019.6
2015-Jul-01 19:33N 37°28' E 011°10'2020.0
2015-Jul-01 18:33N 37°17' E 011°30'2120.7
2015-Jul-01 17:33N 37°05' E 011°51'2020.5
2015-Jul-01 16:33N 36°53' E 012°12'2020.0
2015-Jul-01 15:33N 36°42' E 012°33'2020.5
2015-Jul-01 14:33N 36°31' E 012°54'2120.9
2015-Jul-01 13:33N 36°20' E 013°16'2120.8
2015-Jul-01 12:33N 36°09' E 013°38'2120.5
2015-Jul-01 11:33N 35°58' E 013°59'2020.2
2015-Jul-01 10:33N 35°47' E 014°20'1010.3
2015-Jul-01 09:33N 35°49' E 014°33'0 0.3
2015-Jul-01 08:34N 35°49' E 014°33'0 0.0
2015-Jul-01 07:34N 35°49' E 014°33'0 0.0
2015-Jul-01 06:33N 35°49' E 014°33'0 0.0
2015-Jul-01 05:34N 35°49' E 014°33'0 0.0
2015-Jul-01 04:34N 35°49' E 014°33'0 0.0
2015-Jul-01 03:33N 35°49' E 014°33'0 0.0
2015-Jul-01 02:34N 35°49' E 014°33'0 0.0
2015-Jul-01 01:33N 35°49' E 014°33'0 0.0
2015-Jul-01 00:34N 35°49' E 014°33'0 0.0
2015-Jun-30 23:33N 35°49' E 014°33'0 0.0
2015-Jun-30 22:32N 35°49' E 014°33'0 0.0
2015-Jun-30 21:34N 35°49' E 014°33'0 0.0
2015-Jun-30 20:33N 35°49' E 014°33'0 0.0
2015-Jun-30 19:33N 35°49' E 014°33'0 0.0
2015-Jun-30 18:33N 35°49' E 014°33'0 0.0
2015-Jun-30 17:33N 35°49' E 014°33'0 0.0
2015-Jun-30 16:32N 35°49' E 014°33'0 0.3
2015-Jun-30 15:34N 35°49' E 014°33'8 7.9
2015-Jun-30 14:34N 35°48' E 014°43'1615.7
2015-Jun-30 13:33N 35°48' E 015°02'1615.7
2015-Jun-30 12:33N 35°49' E 015°21'1515.5
2015-Jun-30 11:34N 35°50' E 015°40'1616.2
2015-Jun-30 10:33N 35°50' E 016°00'43018.7
2015-Jun-29 11:33N 37°09' E 024°47'2019.8
2015-Jun-29 10:33N 37°16' E 025°10'2020.2
2015-Jun-29 09:33N 37°21' E 025°34'1717.1
2015-Jun-29 08:33N 37°37' E 025°42'  
Track history (hours):
 
Tides and Currents Weather Stations Pressure Air Temp Water Temp Dewpoint Dewpoint Depression Visibility Wind Speed Wind Dir Waves Ship Positions

Camellia

Last reported at 2015-Jul-06 20:08 UTC. Time now 2015-Jul-07 06:44 UTC.
Position N 41°54' W 009°49'.

Length 222 m; draft 8.2 m.

Type: Ship (hazmat cat C). MMSI: 477791900.

Date/timePositionNaut miles runAvg speedWind from/ knotsBaromVisibWave heightAir tempDewpointWater temp
2015-Jul-06 20:08N 41°54' W 009°49'1119.8
2015-Jul-06 19:33N 41°43' W 009°49'2019.9
2015-Jul-06 18:33N 41°23' W 009°47'2120.6
2015-Jul-06 17:33N 41°02' W 009°45'2020.6
2015-Jul-06 16:33N 40°42' W 009°42'1919.4
2015-Jul-06 15:34N 40°24' W 009°50'2120.3
2015-Jul-06 14:33N 40°03' W 009°53'1919.7
2015-Jul-06 13:33N 39°44' W 009°52'2020.2
2015-Jul-06 12:33N 39°24' W 009°50'2020.3
2015-Jul-06 11:33N 39°03' W 009°50'2020.2
2015-Jul-06 10:33N 38°43' W 009°51'2020.3
2015-Jul-06 09:33N 38°23' W 009°45'2020.4
2015-Jul-06 08:34N 38°03' W 009°41'2120.4
2015-Jul-06 07:33N 37°43' W 009°34'2120.7
2015-Jul-06 06:34N 37°23' W 009°27'2120.8
2015-Jul-06 05:33N 37°03' W 009°21'2019.8
2015-Jul-06 04:34N 36°46' W 009°10'1919.0
2015-Jul-06 03:34N 36°31' W 008°54'2121.0
2015-Jul-06 02:33N 36°12' W 008°45'2121.0
2015-Jul-06 01:34N 35°52' W 008°35'122 4.8
2015-Jul-05 00:10N 34°07' W 007°20'1314.2
2015-Jul-04 23:17N 34°18' W 007°14'1614.4
2015-Jul-04 22:11N 34°32' W 007°05'914.4
2015-Jul-04 21:33N 34°41' W 007°01'9815.8
2015-Jul-04 15:21N 35°57' W 005°46'22 0.8
2015-Jul-03 12:34N 36°02' W 005°20'12019.3
2015-Jul-03 06:21N 36°08' W 002°52'1820.0
2015-Jul-03 05:27N 36°09' W 002°29'4019.5
2015-Jul-03 03:23N 36°14' W 001°40'3819.5
2015-Jul-03 01:26N 36°23' W 000°54'1919.4
2015-Jul-03 00:26N 36°28' W 000°31'1818.9
2015-Jul-02 23:30N 36°32' W 000°09'1819.2
2015-Jul-02 22:33N 36°36' E 000°13'2019.1
2015-Jul-02 21:31N 36°41' E 000°37'1919.3
2015-Jul-02 20:33N 36°45' E 000°60'1919.4
2015-Jul-02 19:34N 36°49' E 001°23'2019.6
2015-Jul-02 18:33N 36°54' E 001°47'1919.1
2015-Jul-02 17:33N 36°59' E 002°10'1919.6
2015-Jul-02 16:33N 37°04' E 002°34'1919.5
2015-Jul-02 15:34N 37°08' E 002°58'1919.3
2015-Jul-02 14:33N 37°12' E 003°21'1919.4
2015-Jul-02 13:33N 37°17' E 003°45'1918.7
2015-Jul-02 12:34N 37°20' E 004°08'2019.3
2015-Jul-02 11:31N 37°20' E 004°33'1919.4
2015-Jul-02 10:33N 37°19' E 004°57'1919.5
2015-Jul-02 09:33N 37°19' E 005°21'2020.1
2015-Jul-02 08:33N 37°18' E 005°47'2121.1
2015-Jul-02 07:32N 37°18' E 006°13'2121.3
2015-Jul-02 06:33N 37°18' E 006°40'4120.4
2015-Jul-02 04:33N 37°17' E 007°31'2020.4
2015-Jul-02 03:34N 37°16' E 007°57'2120.2
2015-Jul-02 02:30N 37°16' E 008°23'1919.7
2015-Jul-02 01:32N 37°20' E 008°47'1919.7
2015-Jul-02 00:33N 37°26' E 009°10'2019.6
2015-Jul-01 23:33N 37°32' E 009°34'1919.6
2015-Jul-01 22:34N 37°38' E 009°57'1919.3
2015-Jul-01 21:33N 37°37' E 010°21'1919.3
2015-Jul-01 20:33N 37°33' E 010°45'2019.6
2015-Jul-01 19:33N 37°28' E 011°10'2020.0
2015-Jul-01 18:33N 37°17' E 011°30'2120.7
2015-Jul-01 17:33N 37°05' E 011°51'2020.5
2015-Jul-01 16:33N 36°53' E 012°12'2020.0
2015-Jul-01 15:33N 36°42' E 012°33'2020.5
2015-Jul-01 14:33N 36°31' E 012°54'2120.9
2015-Jul-01 13:33N 36°20' E 013°16'2120.8
2015-Jul-01 12:33N 36°09' E 013°38'2120.5
2015-Jul-01 11:33N 35°58' E 013°59'2020.2
2015-Jul-01 10:33N 35°47' E 014°20'1010.3
2015-Jul-01 09:33N 35°49' E 014°33'0 0.3
2015-Jul-01 08:34N 35°49' E 014°33'0 0.0
2015-Jul-01 07:34N 35°49' E 014°33'0 0.0
2015-Jul-01 06:33N 35°49' E 014°33'0 0.0
2015-Jul-01 05:34N 35°49' E 014°33'0 0.0
2015-Jul-01 04:34N 35°49' E 014°33'0 0.0
2015-Jul-01 03:33N 35°49' E 014°33'0 0.0
2015-Jul-01 02:34N 35°49' E 014°33'0 0.0
2015-Jul-01 01:33N 35°49' E 014°33'0 0.0
2015-Jul-01 00:34N 35°49' E 014°33'0 0.0
2015-Jun-30 23:33N 35°49' E 014°33'0 0.0
2015-Jun-30 22:32N 35°49' E 014°33'0 0.0
2015-Jun-30 21:34N 35°49' E 014°33'0 0.0
2015-Jun-30 20:33N 35°49' E 014°33'0 0.0
2015-Jun-30 19:33N 35°49' E 014°33'0 0.0
2015-Jun-30 18:33N 35°49' E 014°33'0 0.0
2015-Jun-30 17:33N 35°49' E 014°33'0 0.0
2015-Jun-30 16:32N 35°49' E 014°33'0 0.3
2015-Jun-30 15:34N 35°49' E 014°33'8 7.9
2015-Jun-30 14:34N 35°48' E 014°43'1615.7
2015-Jun-30 13:33N 35°48' E 015°02'1615.7
2015-Jun-30 12:33N 35°49' E 015°21'1515.5
2015-Jun-30 11:34N 35°50' E 015°40'1616.2
2015-Jun-30 10:33N 35°50' E 016°00'43018.7
2015-Jun-29 11:33N 37°09' E 024°47'2019.8
2015-Jun-29 10:33N 37°16' E 025°10'2020.2
2015-Jun-29 09:33N 37°21' E 025°34'1717.1
2015-Jun-29 08:33N 37°37' E 025°42'  

Dump ship's entire track history